Time;durP1;ratioP1;P1;durP2;ratioP2;P2;SDS_P1;SDS_P2;PMS_P1;PMS_P2;Temp;Humidity;BMP_temperature;BMP_pressure;BME280_temperature;BME280_humidity;BME280_pressure;Samples;Min_cycle;Max_cycle;Signal;HPM_P1;HPM_P2
2021/07/29 00:01:55;;;;;;;9.63;3.30;;;;;;;15.24;98.08;98632.13;5032759;28;20493;-73
2021/07/29 00:04:20;;;;;;;3.80;2.97;;;;;;;15.15;97.81;98635.47;5050360;28;20040;-74
2021/07/29 00:06:45;;;;;;;4.65;3.03;;;;;;;14.94;98.13;98626.81;5047733;28;20028;-73
2021/07/29 00:09:10;;;;;;;3.97;2.70;;;;;;;14.89;99.58;98635.69;5047440;28;20040;-74
2021/07/29 00:11:36;;;;;;;5.10;3.30;;;;;;;14.59;99.59;98597.66;5050549;28;20038;-73
2021/07/29 00:14:02;;;;;;;6.20;2.90;;;;;;;14.60;100.00;98618.38;5051660;28;20017;-74
2021/07/29 00:16:30;;;;;;;5.15;3.00;;;;;;;14.70;100.00;98647.75;5051457;28;20078;-74
2021/07/29 00:19:04;;;;;;;8.70;3.83;;;;;;;14.60;100.00;98652.94;5033876;28;20029;-74
2021/07/29 00:21:31;;;;;;;7.90;3.30;;;;;;;14.46;100.00;98652.25;5050493;28;20275;-73
2021/07/29 00:23:56;;;;;;;9.18;3.25;;;;;;;14.37;100.00;98640.88;5050025;28;20032;-73
2021/07/29 00:26:21;;;;;;;6.47;3.63;;;;;;;14.37;100.00;98650.94;5032190;28;20064;-73
2021/07/29 00:28:46;;;;;;;8.18;3.00;;;;;;;14.36;100.00;98643.84;5049581;28;20103;-73
2021/07/29 00:31:12;;;;;;;6.05;3.53;;;;;;;14.30;100.00;98645.56;5049860;28;20035;-73
2021/07/29 00:33:37;;;;;;;5.13;3.05;;;;;;;14.46;100.00;98649.53;5050740;28;20083;-74
2021/07/29 00:36:03;;;;;;;5.57;3.05;;;;;;;14.37;100.00;98664.53;5050363;28;20298;-73
2021/07/29 00:38:28;;;;;;;5.40;2.85;;;;;;;14.30;100.00;98647.47;5032999;28;20090;-73
2021/07/29 00:40:54;;;;;;;6.05;3.05;;;;;;;14.33;100.00;98638.84;5051178;28;20020;-75
2021/07/29 00:43:19;;;;;;;7.07;3.40;;;;;;;14.32;100.00;98657.06;5033011;28;20074;-73
2021/07/29 00:45:45;;;;;;;13.40;3.55;;;;;;;14.22;100.00;98668.50;5032328;28;20990;-73
2021/07/29 00:48:13;;;;;;;9.25;3.00;;;;;;;14.32;100.00;98656.25;5018543;28;20119;-73
2021/07/29 00:50:38;;;;;;;5.53;3.25;;;;;;;14.12;100.00;98660.09;5049043;28;20060;-73
2021/07/29 00:53:06;;;;;;;9.20;3.42;;;;;;;14.10;100.00;98650.50;5030578;28;20048;-72
2021/07/29 00:55:32;;;;;;;7.13;3.25;;;;;;;14.19;100.00;98641.75;5048331;28;20033;-73
2021/07/29 00:57:57;;;;;;;8.77;3.50;;;;;;;14.17;100.00;98645.75;5047335;28;20028;-72
2021/07/29 01:00:22;;;;;;;6.97;3.13;;;;;;;14.02;100.00;98651.63;5031754;28;20033;-73
2021/07/29 01:02:48;;;;;;;9.23;3.47;;;;;;;14.16;100.00;98636.78;5049772;28;20538;-74
2021/07/29 01:05:13;;;;;;;11.10;3.85;;;;;;;14.09;100.00;98633.31;5050400;28;20043;-73
2021/07/29 01:07:39;;;;;;;5.32;3.05;;;;;;;14.07;100.00;98621.00;5050064;28;20132;-74
2021/07/29 01:10:07;;;;;;;15.02;4.25;;;;;;;13.85;100.00;98598.91;5038852;28;20111;-73
2021/07/29 01:12:33;;;;;;;7.55;3.85;;;;;;;13.89;100.00;98622.72;5049948;28;20036;-74
2021/07/29 01:14:59;;;;;;;7.65;2.70;;;;;;;13.85;100.00;98623.41;5032331;28;20112;-73
2021/07/29 01:17:24;;;;;;;11.50;4.05;;;;;;;13.82;100.00;98620.06;5049788;28;20116;-73
2021/07/29 01:19:50;;;;;;;5.07;3.60;;;;;;;13.93;100.00;98642.13;5049451;28;20060;-73
2021/07/29 01:22:15;;;;;;;5.03;3.25;;;;;;;13.75;100.00;98616.63;5048165;28;20036;-73
2021/07/29 01:24:40;;;;;;;11.38;3.35;;;;;;;13.77;100.00;98652.56;5049304;28;20085;-73
2021/07/29 01:27:05;;;;;;;8.70;3.30;;;;;;;13.79;100.00;98639.56;5031140;28;20562;-73
2021/07/29 01:29:31;;;;;;;5.35;3.05;;;;;;;13.62;100.00;98626.81;5031867;28;20033;-73
2021/07/29 01:31:56;;;;;;;7.32;3.70;;;;;;;13.58;100.00;98640.03;5049365;28;20039;-73
2021/07/29 01:34:22;;;;;;;7.78;4.03;;;;;;;13.31;100.00;98621.31;5031311;28;20039;-73
2021/07/29 01:36:47;;;;;;;8.45;3.97;;;;;;;13.11;100.00;98596.19;5049245;28;20376;-73
2021/07/29 01:39:13;;;;;;;6.88;4.00;;;;;;;13.40;100.00;98613.69;5048874;28;20103;-73
2021/07/29 01:41:38;;;;;;;7.28;3.95;;;;;;;13.62;100.00;98624.09;5047971;28;20021;-73
2021/07/29 01:44:04;;;;;;;17.75;4.40;;;;;;;13.44;100.00;98605.91;5047065;28;20035;-72
2021/07/29 01:46:29;;;;;;;8.20;3.78;;;;;;;13.61;100.00;98641.47;5048166;28;20079;-72
2021/07/29 01:48:54;;;;;;;8.55;3.58;;;;;;;13.46;100.00;98625.53;5047489;28;20025;-73
2021/07/29 01:51:20;;;;;;;10.40;3.88;;;;;;;13.31;100.00;98624.03;5047241;28;20487;-73
2021/07/29 01:53:45;;;;;;;7.07;3.28;;;;;;;13.34;100.00;98633.63;5042981;28;20033;-73
2021/07/29 01:56:11;;;;;;;5.72;3.55;;;;;;;13.27;100.00;98636.38;5048642;28;20029;-73
2021/07/29 01:58:36;;;;;;;7.47;3.67;;;;;;;13.27;100.00;98641.81;5030830;28;20517;-73
2021/07/29 02:01:03;;;;;;;6.57;2.97;;;;;;;13.21;100.00;98655.47;5031973;28;20117;-76
2021/07/29 02:03:28;;;;;;;8.68;4.07;;;;;;;13.11;100.00;98628.81;5030695;28;20445;-73
2021/07/29 02:05:53;;;;;;;14.52;3.55;;;;;;;13.17;100.00;98646.91;5048267;28;20032;-73
2021/07/29 02:08:19;;;;;;;8.75;3.38;;;;;;;12.98;100.00;98639.78;5030451;28;20033;-73
2021/07/29 02:10:44;;;;;;;7.88;3.70;;;;;;;13.01;100.00;98623.03;5047035;28;20033;-73
2021/07/29 02:13:09;;;;;;;7.13;3.10;;;;;;;13.04;100.00;98649.75;5047377;28;20393;-73
2021/07/29 02:15:34;;;;;;;9.63;3.58;;;;;;;12.87;100.00;98630.50;5048597;28;20033;-73
2021/07/29 02:18:01;;;;;;;11.88;3.42;;;;;;;12.89;100.00;98642.78;5049966;28;20025;-73
2021/07/29 02:20:27;;;;;;;8.73;3.17;;;;;;;12.92;100.00;98650.50;5049055;28;20032;-73
2021/07/29 02:22:53;;;;;;;6.82;3.47;;;;;;;13.16;100.00;98637.09;5048976;28;20025;-73
2021/07/29 02:25:19;;;;;;;7.30;3.13;;;;;;;13.06;100.00;98625.91;5048826;28;20037;-73
2021/07/29 02:27:44;;;;;;;12.68;3.55;;;;;;;12.99;100.00;98630.56;5049650;28;20108;-74
2021/07/29 02:30:10;;;;;;;6.05;3.33;;;;;;;12.84;100.00;98623.63;5047228;28;20463;-73
2021/07/29 02:32:36;;;;;;;5.57;3.20;;;;;;;13.06;100.00;98636.78;5031769;28;20235;-73
2021/07/29 02:35:02;;;;;;;6.75;3.17;;;;;;;13.08;100.00;98638.22;5034412;28;20120;-73
2021/07/29 02:37:27;;;;;;;6.45;3.83;;;;;;;13.03;100.00;98610.09;5033877;28;20779;-73
2021/07/29 02:39:52;;;;;;;12.15;3.70;;;;;;;13.21;100.00;98650.84;5050853;28;20059;-73
2021/07/29 02:42:18;;;;;;;6.90;3.25;;;;;;;12.90;100.00;98617.28;5051307;28;20064;-73
2021/07/29 02:44:43;;;;;;;8.13;3.33;;;;;;;12.88;100.00;98627.53;5034456;28;20474;-73
2021/07/29 02:47:09;;;;;;;7.25;3.05;;;;;;;12.96;100.00;98652.75;5050773;28;20036;-73
2021/07/29 02:49:35;;;;;;;4.57;3.33;;;;;;;12.99;100.00;98655.84;5051168;28;20402;-72
2021/07/29 02:52:01;;;;;;;13.57;3.53;;;;;;;13.19;100.00;98643.97;5050302;28;20064;-73
2021/07/29 02:54:26;;;;;;;6.82;3.13;;;;;;;12.99;100.00;98609.69;5050462;28;20075;-73
2021/07/29 02:56:51;;;;;;;7.53;3.10;;;;;;;13.07;100.00;98625.72;5032238;28;20053;-73
2021/07/29 02:59:17;;;;;;;8.95;4.03;;;;;;;13.13;100.00;98632.94;5051620;28;20759;-72
2021/07/29 03:01:42;;;;;;;14.00;3.67;;;;;;;13.11;100.00;98620.66;5031002;28;20038;-73
2021/07/29 03:04:07;;;;;;;11.98;3.35;;;;;;;13.32;100.00;98646.59;5050574;28;20029;-73
2021/07/29 03:06:33;;;;;;;4.78;3.28;;;;;;;13.22;100.00;98646.25;5033508;28;20033;-74
2021/07/29 03:08:59;;;;;;;11.77;3.58;;;;;;;13.14;100.00;98644.66;5050133;28;20074;-71
2021/07/29 03:11:25;;;;;;;10.38;3.50;;;;;;;13.02;100.00;98635.56;5033962;28;20062;-77
2021/07/29 03:13:50;;;;;;;9.75;3.60;;;;;;;12.99;100.00;98633.28;5030818;28;20484;-76
2021/07/29 03:16:16;;;;;;;7.35;2.85;;;;;;;12.82;100.00;98617.56;5018666;28;20112;-74
2021/07/29 03:18:41;;;;;;;14.27;3.50;;;;;;;13.07;100.00;98646.59;5032806;28;20090;-73
2021/07/29 03:21:07;;;;;;;8.07;2.90;;;;;;;13.01;100.00;98634.72;5034218;28;20032;-74
2021/07/29 03:23:36;;;;;;;11.63;2.88;;;;;;;12.89;100.00;98642.78;5052506;28;20052;-75
2021/07/29 03:26:02;;;;;;;8.85;3.22;;;;;;;12.73;100.00;98648.75;5034920;28;20116;-73
2021/07/29 03:28:28;;;;;;;10.13;2.97;;;;;;;12.62;100.00;98654.91;5052138;28;20096;-75
2021/07/29 03:30:53;;;;;;;9.38;3.28;;;;;;;12.56;100.00;98645.75;5051342;28;20025;-77
2021/07/29 03:33:19;;;;;;;13.38;3.38;;;;;;;12.43;100.00;98629.59;5033866;28;20077;-75
2021/07/29 03:35:44;;;;;;;9.02;3.30;;;;;;;12.49;100.00;98642.25;5051627;28;20021;-74
2021/07/29 03:38:11;;;;;;;5.35;3.33;;;;;;;12.43;100.00;98641.25;5035337;28;20695;-75
2021/07/29 03:40:37;;;;;;;6.10;3.88;;;;;;;12.44;100.00;98621.22;5045583;28;20029;-75
2021/07/29 03:43:03;;;;;;;10.55;3.78;;;;;;;12.61;100.00;98650.53;5051045;28;20048;-74
2021/07/29 03:45:33;;;;;;;9.40;4.05;;;;;;;12.56;100.00;98631.38;5051609;28;20064;-68
2021/07/29 03:47:59;;;;;;;7.75;4.07;;;;;;;12.93;100.00;98656.75;5050799;28;20060;-64
2021/07/29 03:50:25;;;;;;;10.43;3.70;;;;;;;12.96;100.00;98660.91;5050685;28;20044;-64
2021/07/29 03:52:50;;;;;;;6.63;3.40;;;;;;;12.90;100.00;98662.63;5046553;28;20038;-64
2021/07/29 03:55:16;;;;;;;6.88;3.88;;;;;;;12.85;100.00;98641.56;5033614;28;20025;-72
2021/07/29 03:57:41;;;;;;;9.95;4.18;;;;;;;12.83;100.00;98640.94;5015209;28;20552;-71
2021/07/29 04:00:07;;;;;;;7.93;4.43;;;;;;;13.03;100.00;98667.13;5032636;28;20082;-70
2021/07/29 04:02:33;;;;;;;9.95;5.22;;;;;;;13.11;100.00;98654.06;5029787;28;20029;-71
2021/07/29 04:04:59;;;;;;;7.70;3.88;;;;;;;13.21;100.00;98659.00;5050216;28;20029;-67
2021/07/29 04:07:25;;;;;;;5.45;3.20;;;;;;;13.22;100.00;98657.09;5049889;28;20032;-68
2021/07/29 04:09:50;;;;;;;10.98;2.95;;;;;;;13.01;100.00;98669.22;5033111;28;20029;-71
2021/07/29 04:12:16;;;;;;;6.00;3.38;;;;;;;12.95;100.00;98641.06;5046314;28;20043;-69
2021/07/29 04:14:42;;;;;;;8.13;3.38;;;;;;;13.06;100.00;98658.50;5037927;28;20072;-74
2021/07/29 04:17:07;;;;;;;8.45;3.47;;;;;;;13.04;100.00;98645.16;5031213;28;20376;-75
2021/07/29 04:19:34;;;;;;;6.78;3.60;;;;;;;13.23;100.00;98670.47;5014263;28;20040;-68
2021/07/29 04:21:59;;;;;;;8.07;3.58;;;;;;;13.20;100.00;98645.63;5045170;28;20033;-67
2021/07/29 04:24:28;;;;;;;9.60;3.67;;;;;;;13.47;100.00;98667.97;5048853;28;20032;-70
2021/07/29 04:26:58;;;;;;;9.85;3.55;;;;;;;13.63;100.00;98672.00;5027634;28;20787;-77
2021/07/29 04:29:24;;;;;;;;;;;;;;;13.86;100.00;98672.13;5049782;28;20033;-76
2021/07/29 04:31:51;;;;;;;11.00;3.80;;;;;;;14.01;100.00;98666.28;5033124;28;19908;-77
2021/07/29 04:34:16;;;;;;;9.98;3.58;;;;;;;14.08;100.00;98655.31;5030997;28;20094;-74
2021/07/29 04:36:41;;;;;;;6.70;3.20;;;;;;;14.21;98.46;98655.97;5058408;28;20021;-71
2021/07/29 04:39:08;;;;;;;10.13;3.88;;;;;;;14.40;97.31;98653.19;5056328;28;20017;-76
2021/07/29 04:41:39;;;;;;;9.55;3.75;;;;;;;14.53;96.47;98674.81;5027126;28;20029;-74
2021/07/29 04:44:07;;;;;;;7.88;3.35;;;;;;;14.55;96.15;98674.59;5037749;28;20545;-77
2021/07/29 04:46:32;;;;;;;6.55;3.72;;;;;;;14.71;95.78;98667.63;5055990;28;20021;-75
2021/07/29 04:48:58;;;;;;;4.18;3.20;;;;;;;14.49;94.83;98627.31;5019477;28;20033;-76
2021/07/29 04:51:23;;;;;;;5.85;3.55;;;;;;;14.79;95.06;98664.56;5030384;28;20039;-74
2021/07/29 04:53:49;;;;;;;5.63;3.72;;;;;;;14.85;94.35;98656.28;5031464;28;20032;-75
2021/07/29 04:56:14;;;;;;;6.88;3.38;;;;;;;14.98;94.06;98665.31;5029281;28;20037;-76
2021/07/29 04:58:39;;;;;;;7.82;3.67;;;;;;;15.01;93.15;98662.97;5031737;28;20032;-76
2021/07/29 05:01:05;;;;;;;11.15;3.58;;;;;;;15.16;93.83;98676.09;5030417;28;20535;-73
2021/07/29 05:03:31;;;;;;;8.77;4.18;;;;;;;15.21;92.61;98669.94;5049556;28;20165;-73
2021/07/29 05:05:56;;;;;;;7.05;4.00;;;;;;;15.41;91.99;98664.97;5032121;28;20529;-73
2021/07/29 05:08:21;;;;;;;6.00;3.80;;;;;;;15.41;91.86;98662.25;5049971;28;20079;-73
2021/07/29 05:10:46;;;;;;;8.57;3.58;;;;;;;15.73;90.11;98657.25;5027139;28;20025;-76
2021/07/29 05:13:12;;;;;;;7.43;3.85;;;;;;;16.04;89.87;98654.31;5032943;28;20037;-77
2021/07/29 05:15:37;;;;;;;9.52;3.25;;;;;;;16.18;89.66;98658.41;5032914;28;20020;-71
2021/07/29 05:18:02;;;;;;;5.60;3.20;;;;;;;16.08;89.07;98648.13;5045094;28;20036;-75
2021/07/29 05:20:28;;;;;;;7.28;3.40;;;;;;;16.13;88.16;98663.78;5045962;28;20039;-73
2021/07/29 05:22:53;;;;;;;8.65;3.78;;;;;;;16.02;88.29;98632.72;5044681;28;20052;-74
2021/07/29 05:25:24;;;;;;;7.10;3.90;;;;;;;16.19;88.21;98651.88;5023596;28;20124;-71
2021/07/29 05:27:50;;;;;;;5.32;3.80;;;;;;;16.43;87.19;98645.25;5049247;28;20120;-72
2021/07/29 05:30:17;;;;;;;7.57;3.75;;;;;;;16.71;85.34;98661.84;5049429;28;20101;-73
2021/07/29 05:32:43;;;;;;;9.15;3.85;;;;;;;16.73;84.78;98648.75;5048635;28;20028;-73
2021/07/29 05:35:09;;;;;;;6.95;3.65;;;;;;;16.79;85.36;98665.03;5032684;28;20028;-74
2021/07/29 05:37:34;;;;;;;12.45;3.42;;;;;;;16.98;83.85;98662.88;5049926;28;20029;-69
2021/07/29 05:39:59;;;;;;;8.90;3.58;;;;;;;16.92;83.60;98646.66;5047622;28;20031;-72
2021/07/29 05:42:25;;;;;;;6.82;3.40;;;;;;;17.15;83.20;98673.81;5049643;28;20579;-72
2021/07/29 05:44:50;;;;;;;5.25;2.95;;;;;;;17.27;81.82;98662.78;5050449;28;20029;-73
2021/07/29 05:47:16;;;;;;;15.30;4.50;;;;;;;17.13;82.37;98654.09;5054423;28;20036;-74
2021/07/29 05:49:41;;;;;;;7.72;3.70;;;;;;;17.13;82.51;98648.63;5050284;28;20025;-74
2021/07/29 05:52:06;;;;;;;6.40;3.30;;;;;;;17.43;81.17;98663.84;5041302;28;20039;-71
2021/07/29 05:54:31;;;;;;;13.95;3.45;;;;;;;17.57;79.88;98673.34;5045326;28;20029;-69
2021/07/29 05:56:57;;;;;;;5.68;3.30;;;;;;;17.64;80.01;98659.50;5034151;28;20029;-70
2021/07/29 05:59:22;;;;;;;8.07;3.20;;;;;;;17.79;80.25;98672.53;5036094;28;20044;-69
2021/07/29 06:01:47;;;;;;;5.20;3.50;;;;;;;17.99;79.47;98674.75;5039453;28;20030;-68
2021/07/29 06:04:13;;;;;;;7.65;3.25;;;;;;;17.95;78.52;98671.69;5047270;28;20047;-74
2021/07/29 06:06:38;;;;;;;7.03;3.42;;;;;;;17.62;78.69;98631.56;5050558;28;20017;-70
2021/07/29 06:09:03;;;;;;;9.15;3.58;;;;;;;17.98;79.51;98673.91;5052648;28;20533;-72
2021/07/29 06:11:30;;;;;;;5.45;2.83;;;;;;;18.07;79.25;98680.59;5053005;28;20032;-75
2021/07/29 06:13:56;;;;;;;6.03;3.25;;;;;;;18.30;77.40;98678.69;5034873;28;20031;-70
2021/07/29 06:16:21;;;;;;;4.90;3.10;;;;;;;18.23;77.53;98689.00;5053513;28;20025;-70
2021/07/29 06:19:03;;;;;;;7.30;3.35;;;;;;;18.33;77.82;98678.16;5050179;28;20218;-69
2021/07/29 06:21:29;;;;;;;9.18;2.80;;;;;;;18.33;77.50;98686.38;5048063;28;20029;-69
2021/07/29 06:23:54;;;;;;;8.18;3.33;;;;;;;18.58;78.17;98694.06;5051936;28;20059;-71
2021/07/29 06:26:19;;;;;;;5.55;3.47;;;;;;;18.74;76.95;98675.84;5038227;28;20044;-72
2021/07/29 06:28:45;;;;;;;9.10;3.40;;;;;;;18.65;76.62;98663.69;5018639;28;20022;-71
2021/07/29 06:31:10;;;;;;;7.47;3.30;;;;;;;18.87;76.57;98661.75;5024659;28;20490;-71
2021/07/29 06:33:35;;;;;;;8.68;3.25;;;;;;;19.01;75.49;98662.13;5041193;28;20040;-70
2021/07/29 06:36:02;;;;;;;5.93;2.97;;;;;;;19.25;74.08;98670.81;5043128;28;20124;-72
2021/07/29 06:38:27;;;;;;;5.40;2.53;;;;;;;19.78;73.03;98688.22;5035445;28;20044;-71
2021/07/29 06:40:53;;;;;;;7.40;3.53;;;;;;;19.77;73.29;98678.31;5039408;28;20618;-72
2021/07/29 06:43:18;;;;;;;5.93;2.67;;;;;;;20.09;72.04;98683.66;5025104;28;20693;-71
2021/07/29 06:45:43;;;;;;;5.53;3.60;;;;;;;19.99;70.40;98688.28;5048630;28;20029;-72
2021/07/29 06:48:09;;;;;;;8.07;3.40;;;;;;;20.06;70.46;98677.88;5032854;28;20021;-72
2021/07/29 06:50:34;;;;;;;5.28;3.13;;;;;;;20.05;72.36;98684.50;5045413;28;20673;-72
2021/07/29 06:52:59;;;;;;;5.22;3.25;;;;;;;20.07;72.69;98671.31;5051892;28;20597;-71
2021/07/29 06:55:25;;;;;;;5.05;2.65;;;;;;;21.44;67.27;98669.88;5049865;28;20029;-76
2021/07/29 06:57:50;;;;;;;5.65;2.80;;;;;;;23.45;60.71;98660.25;5053491;28;20021;-73
2021/07/29 07:00:16;;;;;;;7.15;3.10;;;;;;;26.61;52.23;98674.91;5044285;28;20021;-71
2021/07/29 07:02:41;;;;;;;6.43;3.17;;;;;;;28.49;46.08;98675.88;5038119;28;20549;-74
2021/07/29 07:05:07;;;;;;;3.63;2.33;;;;;;;29.79;43.29;98675.81;5048126;28;20036;-74
2021/07/29 07:07:32;;;;;;;6.53;2.55;;;;;;;28.55;44.55;98672.59;5052721;28;20116;-73
2021/07/29 07:09:58;;;;;;;4.53;2.53;;;;;;;30.63;41.37;98647.28;5052987;28;20385;-74
2021/07/29 07:12:23;;;;;;;8.35;2.50;;;;;;;30.75;41.24;98666.91;5043061;28;20036;-73
2021/07/29 07:14:48;;;;;;;4.90;2.45;;;;;;;31.53;40.30;98687.78;5019434;28;20033;-73
2021/07/29 07:17:13;;;;;;;4.43;2.45;;;;;;;31.37;40.28;98670.81;5015336;28;20475;-74
2021/07/29 07:19:39;;;;;;;4.13;2.15;;;;;;;31.03;40.93;98661.59;5015958;28;20037;-73
2021/07/29 07:22:05;;;;;;;5.28;2.15;;;;;;;30.86;39.16;98672.91;5050641;28;20525;-75
2021/07/29 07:24:33;;;;;;;3.20;1.88;;;;;;;30.93;39.88;98687.16;5037705;28;20025;-71
2021/07/29 07:26:58;;;;;;;7.35;2.25;;;;;;;31.09;38.83;98671.41;5049295;28;20021;-73
2021/07/29 07:29:24;;;;;;;5.18;2.00;;;;;;;29.48;42.06;98676.84;5050415;28;20040;-76
2021/07/29 07:31:49;;;;;;;3.65;1.92;;;;;;;26.96;46.78;98697.41;5052013;28;20033;-77
2021/07/29 07:34:15;;;;;;;4.32;1.67;;;;;;;26.59;47.58;98669.69;5031773;28;20398;-69
2021/07/29 07:36:40;;;;;;;2.78;1.70;;;;;;;25.46;49.35;98693.22;5028330;28;20025;-71
2021/07/29 07:39:07;;;;;;;2.20;1.60;;;;;;;22.73;55.05;98668.25;5034354;28;20021;-75
2021/07/29 07:41:33;;;;;;;4.68;1.70;;;;;;;22.81;56.14;98681.44;5013501;28;20036;-73
2021/07/29 07:43:58;;;;;;;3.45;1.80;;;;;;;22.09;57.63;98690.09;5027412;28;20033;-73
2021/07/29 07:46:23;;;;;;;5.03;2.13;;;;;;;21.97;58.44;98686.81;5035117;28;20032;-75
2021/07/29 07:48:49;;;;;;;4.07;1.65;;;;;;;23.93;54.12;98676.88;5026422;28;20068;-75
2021/07/29 07:51:14;;;;;;;4.10;1.80;;;;;;;24.41;52.16;98687.06;5026871;28;20052;-72
2021/07/29 07:53:39;;;;;;;4.85;1.73;;;;;;;25.30;50.16;98675.25;5032954;28;20021;-69
2021/07/29 07:56:05;;;;;;;6.75;1.67;;;;;;;23.89;51.54;98669.47;5051166;28;20497;-69
2021/07/29 07:58:31;;;;;;;5.05;1.55;;;;;;;23.40;52.21;98683.22;5050325;28;20071;-70
2021/07/29 08:00:56;;;;;;;2.97;1.45;;;;;;;21.13;58.39;98699.31;5032046;28;20103;-70
2021/07/29 08:03:22;;;;;;;4.47;1.70;;;;;;;21.42;58.63;98674.84;5050568;28;20116;-70
2021/07/29 08:05:48;;;;;;;3.30;2.00;;;;;;;22.00;57.20;98682.66;5049496;28;20029;-69
2021/07/29 08:08:13;;;;;;;4.88;1.60;;;;;;;22.60;55.46;98680.75;5028463;28;20491;-70
2021/07/29 08:10:40;;;;;;;6.72;1.60;;;;;;;23.81;52.95;98659.88;5024578;28;20028;-73
2021/07/29 08:13:06;;;;;;;3.08;1.63;;;;;;;23.81;52.78;98682.81;5031122;28;20466;-73
2021/07/29 08:15:33;;;;;;;4.93;1.80;;;;;;;22.66;54.49;98678.78;5039498;28;20570;-76
2021/07/29 08:17:59;;;;;;;4.55;1.70;;;;;;;22.07;56.58;98678.50;5039065;28;20024;-76
2021/07/29 08:20:25;;;;;;;4.30;1.75;;;;;;;21.95;57.42;98675.25;5031971;28;20499;-69
2021/07/29 08:22:53;;;;;;;4.53;1.80;;;;;;;21.85;56.95;98656.84;5033703;28;20033;-69
2021/07/29 08:25:20;;;;;;;3.00;1.60;;;;;;;21.80;57.12;98689.09;5021091;28;20471;-68
2021/07/29 08:27:50;;;;;;;4.10;1.90;;;;;;;22.51;54.75;98682.47;5041016;28;20035;-68
2021/07/29 08:30:16;;;;;;;2.25;1.70;;;;;;;23.04;53.56;98685.44;5023429;28;20072;-70
2021/07/29 08:32:42;;;;;;;3.90;1.70;;;;;;;23.48;53.05;98684.50;5046808;28;20036;-72
2021/07/29 08:35:08;;;;;;;3.75;1.80;;;;;;;22.78;53.82;98681.19;5039344;28;20036;-72
2021/07/29 08:37:33;;;;;;;4.43;1.80;;;;;;;22.65;53.81;98663.34;5046190;28;20025;-71
2021/07/29 08:39:58;;;;;;;6.93;1.75;;;;;;;25.19;48.75;98677.38;5047708;28;20024;-75
2021/07/29 08:42:26;;;;;;;2.55;1.70;;;;;;;28.21;40.69;98659.41;5049160;28;20035;-73
2021/07/29 08:44:52;;;;;;;4.63;1.40;;;;;;;31.09;35.96;98681.75;5031023;28;20158;-74
2021/07/29 08:47:23;;;;;;;3.88;1.60;;;;;;;31.28;35.68;98662.50;5031278;28;20025;-74
2021/07/29 08:49:54;;;;;;;6.50;1.67;;;;;;;31.14;34.97;98667.59;5038048;28;20024;-72
2021/07/29 08:52:19;;;;;;;2.53;1.40;;;;;;;29.16;37.70;98678.22;5045694;28;20487;-74
2021/07/29 08:54:46;;;;;;;5.28;1.63;;;;;;;26.26;42.72;98657.09;5047623;28;20078;-73
2021/07/29 08:57:17;;;;;;;2.08;1.52;;;;;;;25.87;44.87;98663.97;5033099;28;20012;-75
2021/07/29 08:59:42;;;;;;;4.25;1.80;;;;;;;25.81;44.83;98679.88;5051348;28;20029;-74
2021/07/29 09:02:22;;;;;;;2.60;1.58;;;;;;;28.61;41.34;98667.69;5031292;28;20029;-66
2021/07/29 09:05:07;;;;;;;2.83;1.88;;;;;;;29.21;38.73;98680.84;5048728;28;20486;-73
2021/07/29 09:07:33;;;;;;;3.88;1.63;;;;;;;28.12;40.54;98664.13;5049765;28;20162;-70
2021/07/29 09:09:59;;;;;;;4.15;1.67;;;;;;;27.40;42.21;98693.03;5048639;28;20136;-72
2021/07/29 09:12:25;;;;;;;4.47;1.80;;;;;;;28.83;39.47;98683.44;5030074;28;20397;-73
2021/07/29 09:14:52;;;;;;;2.80;1.60;;;;;;;29.43;38.22;98679.00;5048902;28;20108;-74
2021/07/29 09:17:18;;;;;;;2.45;1.67;;;;;;;29.64;36.92;98677.16;5026126;28;20056;-78
2021/07/29 09:19:46;;;;;;;3.63;1.77;;;;;;;29.69;37.27;98676.16;5027917;28;20071;-76
2021/07/29 09:22:11;;;;;;;2.45;1.80;;;;;;;28.77;38.72;98679.19;5039208;28;20033;-72
2021/07/29 09:24:56;;;;;;;4.67;1.70;;;;;;;28.79;38.17;98668.53;5030713;28;20081;-76
2021/07/29 09:27:23;;;;;;;2.67;1.70;;;;;;;27.37;40.60;98688.13;5038457;28;20291;-72
2021/07/29 09:29:48;;;;;;;3.58;1.80;;;;;;;24.70;46.00;98698.03;5029509;28;20025;-68
2021/07/29 09:32:16;;;;;;;3.13;1.58;;;;;;;27.19;42.29;98685.22;5048674;28;20481;-72
2021/07/29 09:34:47;;;;;;;3.25;1.73;;;;;;;30.06;36.76;98680.09;5030862;28;20039;-67
2021/07/29 09:37:13;;;;;;;2.35;1.67;;;;;;;28.78;37.21;98672.47;5049085;28;20024;-70
2021/07/29 09:39:39;;;;;;;4.25;1.98;;;;;;;30.06;36.87;98674.53;5049467;28;20502;-70
2021/07/29 09:42:22;;;;;;;4.22;2.05;;;;;;;28.41;39.07;98677.47;5048286;28;20044;-71
2021/07/29 09:44:50;;;;;;;4.55;1.55;;;;;;;28.40;39.87;98676.66;5047710;28;20024;-71
2021/07/29 09:47:18;;;;;;;2.05;1.70;;;;;;;29.29;37.26;98668.00;5030256;28;20063;-71
2021/07/29 09:49:44;;;;;;;2.75;1.70;;;;;;;29.80;36.45;98657.91;5039641;28;20028;-69
2021/07/29 09:52:09;;;;;;;2.97;2.08;;;;;;;30.07;34.40;98658.59;5034169;28;20040;-63
2021/07/29 09:54:39;;;;;;;3.33;1.83;;;;;;;28.92;34.43;98658.38;5046381;28;20033;-71
2021/07/29 09:57:07;;;;;;;3.20;1.88;;;;;;;28.14;37.11;98659.09;5049284;28;20017;-68
2021/07/29 09:59:33;;;;;;;3.67;1.92;;;;;;;28.83;35.12;98661.16;5048431;28;20036;-67
2021/07/29 10:02:01;;;;;;;2.67;1.88;;;;;;;30.12;34.00;98647.25;5047985;28;20410;-70
2021/07/29 10:04:48;;;;;;;3.60;1.88;;;;;;;31.72;31.83;98651.69;5047961;28;20033;-68
2021/07/29 10:07:27;;;;;;;4.30;2.05;;;;;;;29.51;33.47;98649.47;5036763;28;20053;-69
2021/07/29 10:09:54;;;;;;;3.35;1.73;;;;;;;29.87;35.13;98647.06;5041774;28;20025;-68
2021/07/29 10:12:24;;;;;;;3.00;1.90;;;;;;;31.90;31.10;98643.91;5036999;28;20092;-69
2021/07/29 10:14:52;;;;;;;6.18;2.08;;;;;;;32.53;31.37;98643.56;5052797;28;20112;-67
2021/07/29 10:17:38;;;;;;;3.20;1.67;;;;;;;32.67;30.68;98648.78;5051637;28;20029;-67
2021/07/29 10:20:23;;;;;;;2.40;1.60;;;;;;;32.02;31.64;98643.94;5066581;28;20033;-69
2021/07/29 10:23:26;;;;;;;2.33;1.80;;;;;;;31.65;30.82;98637.47;5059866;28;20045;-65
2021/07/29 10:25:52;;;;;;;3.53;2.03;;;;;;;32.08;30.38;98641.72;5041053;28;20052;-65
2021/07/29 10:28:25;;;;;;;3.83;2.00;;;;;;;31.84;29.42;98646.13;5048442;28;20037;-65
2021/07/29 10:30:55;;;;;;;3.08;2.03;;;;;;;27.68;36.87;98646.44;5047582;28;20068;-66
2021/07/29 10:33:23;;;;;;;2.63;1.88;;;;;;;28.16;37.42;98640.94;5046503;28;20025;-65
2021/07/29 10:35:49;;;;;;;2.65;1.80;;;;;;;27.50;37.20;98631.63;5047844;28;20021;-66
2021/07/29 10:38:47;;;;;;;4.10;2.15;;;;;;;29.99;34.56;98640.75;5047914;28;20119;-65
2021/07/29 10:41:13;;;;;;;2.78;1.70;;;;;;;30.73;32.77;98644.91;5047500;28;20378;-66
2021/07/29 10:43:42;;;;;;;4.40;2.15;;;;;;;31.98;31.33;98637.41;5049428;28;20032;-66
2021/07/29 10:46:08;;;;;;;;;;;;;;;30.55;32.28;98637.81;5049239;28;20028;-66
2021/07/29 10:48:39;;;;;;;6.28;2.00;;;;;;;31.15;33.38;98639.31;5047124;28;19913;-66
2021/07/29 10:51:11;;;;;;;4.28;2.03;;;;;;;32.12;30.54;98630.63;5028119;28;20017;-66
2021/07/29 10:53:39;;;;;;;3.55;2.10;;;;;;;33.16;29.28;98631.81;5046609;28;20040;-66
2021/07/29 10:56:06;;;;;;;3.67;2.20;;;;;;;32.61;29.61;98622.19;5043752;28;20386;-66
2021/07/29 10:58:52;;;;;;;4.70;2.30;;;;;;;29.01;34.87;98612.66;5034834;28;20068;-65
2021/07/29 11:01:18;;;;;;;3.00;2.17;;;;;;;29.16;36.84;98635.59;5047032;28;20032;-66
2021/07/29 11:03:51;;;;;;;6.40;2.28;;;;;;;31.71;34.26;98629.69;5048334;28;20025;-66
2021/07/29 11:06:34;;;;;;;3.15;2.10;;;;;;;32.99;30.27;98626.47;5035734;28;20072;-66
2021/07/29 11:09:13;;;;;;;3.17;2.17;;;;;;;32.66;28.90;98605.94;5051115;28;20135;-74
2021/07/29 11:11:38;;;;;;;;;;;;;;;32.68;29.61;98616.81;5053702;28;20394;-73
2021/07/29 11:14:04;;;;;;;4.22;2.00;;;;;;;33.41;29.15;98614.88;5034990;28;19999;-72
2021/07/29 11:16:30;;;;;;;3.78;1.70;;;;;;;33.24;29.25;98604.78;5053295;28;20025;-72
2021/07/29 11:19:03;;;;;;;3.50;2.38;;;;;;;32.66;29.63;98610.72;5035253;28;20029;-77
2021/07/29 11:21:28;;;;;;;3.25;2.00;;;;;;;33.13;28.99;98604.50;5050769;28;20043;-76
2021/07/29 11:23:53;;;;;;;3.80;2.63;;;;;;;32.50;29.76;98602.25;5034256;28;20029;-76
2021/07/29 11:26:19;;;;;;;4.05;2.10;;;;;;;32.66;28.90;98605.13;5053221;28;20025;-76
2021/07/29 11:29:06;;;;;;;3.63;1.80;;;;;;;31.50;31.12;98604.59;5053007;28;20049;-76